Time;durP1;ratioP1;P1;durP2;ratioP2;P2;SDS_P1;SDS_P2;PMS_P1;PMS_P2;Temp;Humidity;BMP_temperature;BMP_pressure;BME280_temperature;BME280_humidity;BME280_pressure;Samples;Min_cycle;Max_cycle;Signal;HPM_P1;HPM_P2
2023/01/29 00:01:50;;;;;;;0.50;0.50;;;0.50;99.90;;;;;;5096040;28;20453;-81
2023/01/29 00:04:17;;;;;;;0.33;0.33;;;0.40;99.90;;;;;;5096021;28;20448;-82
2023/01/29 00:06:43;;;;;;;1.33;1.00;;;0.40;99.90;;;;;;5095585;28;20983;-82
2023/01/29 00:09:11;;;;;;;0.40;0.40;;;0.40;99.90;;;;;;5095966;28;20831;-82
2023/01/29 00:11:39;;;;;;;0.50;0.40;;;0.40;99.90;;;;;;5095874;28;20451;-82
2023/01/29 00:14:06;;;;;;;0.37;0.33;;;0.30;99.90;;;;;;5095675;28;20825;-82
2023/01/29 00:16:33;;;;;;;0.30;0.30;;;0.30;99.90;;;;;;5095183;28;20476;-82
2023/01/29 00:19:01;;;;;;;0.40;0.40;;;0.30;99.90;;;;;;5095598;28;20433;-82
2023/01/29 00:21:29;;;;;;;0.60;0.57;;;0.30;99.90;;;;;;5095721;28;20456;-82
2023/01/29 00:23:56;;;;;;;4.30;0.90;;;0.30;99.90;;;;;;5095609;28;20453;-82
2023/01/29 00:26:23;;;;;;;1.13;0.87;;;0.30;99.90;;;;;;5095580;28;20475;-81
2023/01/29 00:28:51;;;;;;;0.73;0.73;;;0.30;99.90;;;;;;5095545;28;20415;-82
2023/01/29 00:31:20;;;;;;;0.50;0.50;;;0.40;99.90;;;;;;5095534;28;20423;-82
2023/01/29 00:33:47;;;;;;;0.50;0.50;;;0.40;99.90;;;;;;5095114;28;20963;-82
2023/01/29 00:36:16;;;;;;;0.60;0.30;;;0.40;99.90;;;;;;5095356;28;20808;-82
2023/01/29 00:38:43;;;;;;;0.87;0.40;;;0.40;99.90;;;;;;5094974;28;20481;-82
2023/01/29 00:46:41;;;;;;;0.40;0.33;;;0.50;99.90;;;;;;5095119;28;20514;-82
2023/01/29 00:49:08;;;;;;;0.30;0.30;;;0.50;99.90;;;;;;5095146;28;20468;-82
2023/01/29 00:51:36;;;;;;;0.30;0.30;;;0.50;99.90;;;;;;5094822;28;20815;-82
2023/01/29 00:54:05;;;;;;;0.40;0.40;;;0.50;99.90;;;;;;5094798;28;20445;-81
2023/01/29 00:56:33;;;;;;;1.03;0.40;;;0.50;99.90;;;;;;5094610;28;20502;-82
2023/01/29 00:59:01;;;;;;;0.53;0.53;;;0.40;99.90;;;;;;5094579;28;20472;-82
2023/01/29 01:04:13;;;;;;;0.30;0.30;;;0.40;99.90;;;;;;5095043;28;20412;-82
2023/01/29 01:06:42;;;;;;;0.40;0.40;;;0.40;99.90;;;;;;5094565;28;20452;-82
2023/01/29 01:11:54;;;;;;;0.80;0.80;;;0.50;99.90;;;;;;5094873;28;20481;-82
2023/01/29 01:14:22;;;;;;;0.30;0.30;;;0.60;99.90;;;;;;5094517;28;20474;-82
2023/01/29 01:16:49;;;;;;;0.60;0.50;;;0.50;99.90;;;;;;5094176;28;21010;-82
2023/01/29 01:19:16;;;;;;;1.33;0.60;;;0.60;99.90;;;;;;5094288;28;20444;-82
2023/01/29 01:21:46;;;;;;;2.00;0.97;;;0.60;99.90;;;;;;5094527;28;20460;-82
2023/01/29 01:24:13;;;;;;;1.37;0.87;;;0.60;99.90;;;;;;5094510;28;20797;-82
2023/01/29 01:26:40;;;;;;;0.50;0.43;;;0.50;99.90;;;;;;5094403;28;20850;-82
2023/01/29 01:29:07;;;;;;;1.27;0.50;;;0.60;99.90;;;;;;5094436;28;20419;-82
2023/01/29 01:31:35;;;;;;;1.37;0.60;;;0.60;99.90;;;;;;5094349;28;20836;-82
2023/01/29 01:34:02;;;;;;;0.93;0.93;;;0.50;99.90;;;;;;5094290;28;20437;-82
2023/01/29 01:36:31;;;;;;;0.50;0.50;;;0.60;99.90;;;;;;5093947;28;20975;-82
2023/01/29 01:38:57;;;;;;;0.50;0.40;;;0.60;99.90;;;;;;5094103;28;20485;-82
2023/01/29 01:41:24;;;;;;;0.63;0.63;;;0.60;99.90;;;;;;5094157;28;20448;-83
2023/01/29 01:43:53;;;;;;;0.30;0.30;;;0.60;99.90;;;;;;5094182;28;20460;-82
2023/01/29 01:46:21;;;;;;;0.40;0.33;;;0.60;99.90;;;;;;5094014;28;20469;-82
2023/01/29 01:48:54;;;;;;;0.30;0.20;;;0.60;99.90;;;;;;5093793;28;20448;-82
2023/01/29 01:51:24;;;;;;;0.40;0.40;;;0.50;99.90;;;;;;5094093;28;20432;-82
2023/01/29 01:53:54;;;;;;;0.57;0.57;;;0.50;99.90;;;;;;5093666;28;20940;-82
2023/01/29 01:56:26;;;;;;;3.93;0.80;;;0.50;99.90;;;;;;5093885;28;20464;-82
2023/01/29 01:58:54;;;;;;;0.40;0.40;;;0.50;99.90;;;;;;5093908;28;20472;-82
2023/01/29 02:01:26;;;;;;;0.30;0.30;;;0.50;99.90;;;;;;5093837;28;20448;-82
2023/01/29 02:09:34;;;;;;;1.07;1.07;;;0.50;99.90;;;;;;5093803;28;20397;-82
2023/01/29 02:12:01;;;;;;;0.87;0.50;;;0.50;99.90;;;;;;5093404;28;20464;-82
2023/01/29 02:14:29;;;;;;;0.30;0.20;;;0.50;99.90;;;;;;5093000;28;20456;-82
2023/01/29 02:16:56;;;;;;;1.80;0.50;;;0.50;99.90;;;;;;5093608;28;20483;-82
2023/01/29 02:19:37;;;;;;;0.30;0.27;;;0.50;99.90;;;;;;5093527;28;20485;-82
2023/01/29 02:22:16;;;;;;;0.30;0.20;;;0.50;99.90;;;;;;5093361;28;20939;-82
2023/01/29 02:25:08;;;;;;;0.40;0.33;;;0.60;99.90;;;;;;5093251;28;20928;-82
2023/01/29 02:27:56;;;;;;;0.40;0.40;;;0.60;99.90;;;;;;5093949;28;20544;-82
2023/01/29 02:30:29;;;;;;;0.30;0.30;;;0.60;99.90;;;;;;5093567;28;20425;-82
2023/01/29 02:33:06;;;;;;;0.50;0.50;;;0.60;99.90;;;;;;5093486;28;20472;-82
2023/01/29 02:35:39;;;;;;;1.60;0.50;;;0.60;99.90;;;;;;5093398;28;20877;-82
2023/01/29 02:38:16;;;;;;;0.30;0.30;;;0.60;99.90;;;;;;5093429;28;20476;-82
2023/01/29 02:40:46;;;;;;;0.50;0.50;;;0.50;99.90;;;;;;5093513;28;20429;-82
2023/01/29 02:43:28;;;;;;;2.80;0.50;;;0.50;99.90;;;;;;5093058;28;20445;-82
2023/01/29 02:46:04;;;;;;;0.70;0.70;;;0.50;99.90;;;;;;5093340;28;20469;-82
2023/01/29 02:48:39;;;;;;;0.40;0.40;;;0.50;99.90;;;;;;5093363;28;20420;-82
2023/01/29 02:51:10;;;;;;;0.57;0.57;;;0.50;99.90;;;;;;5093372;28;20432;-82
2023/01/29 02:53:45;;;;;;;0.40;0.30;;;0.50;99.90;;;;;;5093381;28;20407;-82
2023/01/29 02:56:17;;;;;;;0.30;0.30;;;0.50;99.90;;;;;;5093287;28;20537;-82
2023/01/29 02:58:49;;;;;;;0.57;0.40;;;0.50;99.90;;;;;;5092934;28;20465;-82
2023/01/29 03:01:23;;;;;;;0.40;0.30;;;0.40;99.90;;;;;;5093262;28;20429;-82
2023/01/29 03:03:53;;;;;;;0.30;0.30;;;0.50;99.90;;;;;;5093267;28;20432;-82
2023/01/29 03:06:24;;;;;;;0.30;0.30;;;0.50;99.90;;;;;;5093167;28;20461;-82
2023/01/29 03:08:56;;;;;;;0.30;0.30;;;0.40;99.90;;;;;;5093182;28;20464;-82
2023/01/29 03:11:23;;;;;;;0.60;0.60;;;0.40;99.90;;;;;;5093056;28;20422;-82
2023/01/29 03:13:53;;;;;;;0.30;0.30;;;0.40;99.90;;;;;;5092897;28;20448;-82
2023/01/29 03:16:25;;;;;;;0.80;0.43;;;0.30;99.90;;;;;;5092558;28;20481;-82
2023/01/29 03:18:56;;;;;;;0.30;0.27;;;0.40;99.90;;;;;;5093101;28;20475;-82
2023/01/29 03:32:37;;;;;;;0.30;0.30;;;0.40;99.90;;;;;;5096572;28;20454;-82
2023/01/29 03:35:08;;;;;;;0.30;0.30;;;0.40;99.90;;;;;;5096588;28;20449;-82
2023/01/29 03:37:40;;;;;;;0.30;0.20;;;0.40;99.90;;;;;;5096570;28;20797;-82
2023/01/29 03:40:09;;;;;;;0.40;0.30;;;0.40;99.90;;;;;;5096604;28;20440;-82
2023/01/29 03:42:45;;;;;;;0.30;0.30;;;0.40;99.90;;;;;;5096786;28;20453;-82
2023/01/29 03:45:17;;;;;;;0.30;0.30;;;0.40;99.90;;;;;;5096426;28;20434;-82
2023/01/29 03:47:48;;;;;;;0.30;0.20;;;0.40;99.90;;;;;;5096508;28;20433;-82
2023/01/29 03:50:30;;;;;;;1.07;1.07;;;0.40;99.90;;;;;;5096477;28;20440;-82
2023/01/29 03:53:04;;;;;;;0.30;0.30;;;0.40;99.90;;;;;;5096347;28;20440;-82
2023/01/29 03:55:38;;;;;;;0.60;0.53;;;0.40;99.90;;;;;;5096267;28;20464;-82
2023/01/29 03:58:14;;;;;;;0.30;0.20;;;0.40;99.90;;;;;;5095994;28;20975;-82
2023/01/29 04:00:45;;;;;;;0.30;0.30;;;0.40;99.90;;;;;;5095880;28;20807;-82
2023/01/29 04:03:20;;;;;;;0.30;0.30;;;0.30;99.90;;;;;;5096163;28;20432;-83
2023/01/29 04:05:52;;;;;;;0.30;0.30;;;0.30;99.90;;;;;;5096120;28;20824;-82
2023/01/29 04:08:24;;;;;;;0.30;0.27;;;0.30;99.90;;;;;;5096108;28;20436;-82
2023/01/29 04:10:53;;;;;;;0.40;0.40;;;0.40;99.90;;;;;;5095737;28;20439;-82
2023/01/29 04:13:20;;;;;;;0.30;0.30;;;0.40;99.90;;;;;;5095704;28;20963;-82
2023/01/29 04:15:50;;;;;;;0.40;0.30;;;0.40;99.90;;;;;;5095493;28;20980;-82
2023/01/29 04:18:18;;;;;;;0.80;0.73;;;0.40;99.90;;;;;;5095748;28;20858;-82
2023/01/29 04:20:45;;;;;;;0.53;0.53;;;0.30;99.90;;;;;;5095557;28;20957;-82
2023/01/29 04:23:21;;;;;;;0.90;0.90;;;0.40;99.90;;;;;;5095825;28;20453;-82
2023/01/29 04:25:53;;;;;;;8.90;1.17;;;0.40;99.90;;;;;;5095406;28;21010;-82
2023/01/29 04:28:27;;;;;;;0.30;0.30;;;0.30;99.90;;;;;;5095680;28;20774;-82
2023/01/29 04:30:58;;;;;;;0.30;0.30;;;0.30;99.90;;;;;;5095655;28;20473;-82
2023/01/29 04:33:39;;;;;;;0.40;0.40;;;0.30;99.90;;;;;;5095331;28;20912;-82
2023/01/29 04:36:19;;;;;;;0.63;0.63;;;0.30;99.90;;;;;;5095340;28;20504;-82
2023/01/29 04:38:54;;;;;;;0.50;0.50;;;0.30;99.90;;;;;;5095561;28;20468;-82
2023/01/29 04:41:27;;;;;;;0.50;0.37;;;0.30;99.90;;;;;;5095450;28;20435;-83
2023/01/29 04:44:00;;;;;;;0.30;0.30;;;0.30;99.90;;;;;;5095397;28;20440;-82
2023/01/29 04:46:31;;;;;;;0.83;0.43;;;0.30;99.90;;;;;;5094906;28;20856;-82
2023/01/29 04:49:14;;;;;;;0.40;0.30;;;0.30;99.90;;;;;;5095341;28;20429;-82
2023/01/29 04:51:51;;;;;;;0.83;0.83;;;0.40;99.90;;;;;;5095242;28;20432;-82
2023/01/29 04:54:28;;;;;;;0.30;0.30;;;0.30;99.90;;;;;;5095142;28;20403;-83
2023/01/29 04:57:01;;;;;;;0.40;0.40;;;0.30;99.90;;;;;;5095046;28;20471;-82
2023/01/29 04:59:34;;;;;;;0.30;0.30;;;0.30;99.90;;;;;;5095077;28;20827;-82
2023/01/29 05:02:02;;;;;;;0.70;0.70;;;0.40;99.90;;;;;;5094975;28;20890;-82
2023/01/29 05:04:33;;;;;;;3.23;0.93;;;0.40;99.90;;;;;;5094939;28;20444;-82
2023/01/29 05:07:04;;;;;;;0.30;0.20;;;0.30;99.90;;;;;;5095125;28;20464;-82
2023/01/29 05:09:33;;;;;;;0.50;0.40;;;0.30;99.90;;;;;;5095630;28;20459;-82
2023/01/29 05:12:01;;;;;;;0.40;0.40;;;0.30;99.90;;;;;;5094760;28;20452;-82
2023/01/29 05:14:30;;;;;;;0.30;0.30;;;0.20;99.90;;;;;;5094518;28;20434;-83
2023/01/29 05:17:00;;;;;;;0.40;0.40;;;0.20;99.90;;;;;;5094918;28;20461;-82
2023/01/29 05:19:26;;;;;;;1.90;0.83;;;0.20;99.90;;;;;;5094850;28;20483;-82
2023/01/29 05:21:55;;;;;;;0.30;0.30;;;0.20;99.90;;;;;;5094554;28;20468;-82
2023/01/29 05:24:24;;;;;;;0.30;0.30;;;0.20;99.90;;;;;;5094503;28;20453;-82
2023/01/29 05:29:38;;;;;;;0.30;0.30;;;0.20;99.90;;;;;;5094825;28;20762;-82
2023/01/29 05:32:05;;;;;;;0.67;0.67;;;0.20;99.90;;;;;;5094441;28;20471;-82
2023/01/29 05:34:33;;;;;;;0.30;0.30;;;0.20;99.90;;;;;;5094412;28;20448;-82
2023/01/29 05:37:01;;;;;;;0.50;0.50;;;0.20;99.90;;;;;;5093885;28;20477;-82
2023/01/29 05:39:28;;;;;;;0.30;0.20;;;0.20;99.90;;;;;;5094450;28;20487;-82
2023/01/29 05:41:55;;;;;;;0.40;0.30;;;0.30;99.90;;;;;;5094134;28;20456;-82
2023/01/29 05:44:21;;;;;;;0.30;0.30;;;0.30;99.90;;;;;;5093922;28;20958;-82
2023/01/29 05:46:49;;;;;;;0.30;0.30;;;0.30;99.90;;;;;;5093985;28;20452;-83
2023/01/29 05:49:17;;;;;;;0.30;0.20;;;0.30;99.90;;;;;;5093352;28;20861;-82
2023/01/29 05:51:44;;;;;;;0.30;0.20;;;0.30;99.90;;;;;;5094059;28;20513;-82
2023/01/29 05:54:12;;;;;;;0.30;0.30;;;0.30;99.90;;;;;;5094011;28;20456;-82
2023/01/29 05:56:39;;;;;;;1.13;0.50;;;0.20;99.90;;;;;;5093903;28;20476;-83
2023/01/29 05:59:07;;;;;;;0.60;0.60;;;0.30;99.90;;;;;;5093936;28;20485;-82
2023/01/29 06:01:33;;;;;;;0.30;0.30;;;0.30;99.90;;;;;;5093781;28;20940;-83
2023/01/29 06:04:00;;;;;;;0.30;0.20;;;0.30;99.90;;;;;;5093916;28;20452;-82
2023/01/29 06:06:27;;;;;;;0.40;0.40;;;0.30;99.90;;;;;;5094009;28;20431;-82
2023/01/29 06:08:54;;;;;;;0.60;0.37;;;0.30;99.90;;;;;;5093443;28;20452;-83
2023/01/29 06:11:22;;;;;;;0.40;0.40;;;0.20;99.90;;;;;;5093778;28;20440;-82
2023/01/29 06:13:48;;;;;;;0.30;0.20;;;0.20;99.90;;;;;;5093883;28;20460;-82
2023/01/29 06:16:16;;;;;;;2.13;0.47;;;0.20;99.90;;;;;;5093490;28;20850;-83
2023/01/29 06:18:43;;;;;;;0.80;0.50;;;0.20;99.90;;;;;;5093610;28;20507;-83
2023/01/29 06:21:11;;;;;;;1.37;0.67;;;0.20;99.90;;;;;;5093613;28;20539;-82
2023/01/29 06:23:38;;;;;;;0.30;0.30;;;0.20;99.90;;;;;;5093846;28;20467;-82
2023/01/29 06:26:07;;;;;;;0.60;0.60;;;0.20;99.90;;;;;;5093218;28;20460;-82
2023/01/29 06:28:35;;;;;;;0.30;0.30;;;0.20;99.90;;;;;;5093487;28;20444;-83
2023/01/29 06:31:05;;;;;;;0.30;0.30;;;0.30;99.90;;;;;;5094054;28;20915;-82
2023/01/29 06:33:32;;;;;;;0.40;0.40;;;0.30;99.90;;;;;;5094229;28;20441;-82
2023/01/29 06:36:00;;;;;;;0.40;0.30;;;0.30;99.90;;;;;;5093464;28;20468;-82
2023/01/29 06:38:27;;;;;;;0.30;0.30;;;0.40;99.90;;;;;;5093496;28;20452;-83
2023/01/29 06:40:55;;;;;;;0.30;0.30;;;0.40;99.90;;;;;;5093479;28;20451;-83
2023/01/29 06:43:23;;;;;;;0.57;0.57;;;0.30;99.90;;;;;;5093467;28;20455;-83
2023/01/29 06:45:52;;;;;;;0.67;0.37;;;0.20;99.90;;;;;;5093464;28;20471;-82
2023/01/29 06:48:19;;;;;;;0.33;0.33;;;0.20;99.90;;;;;;5093148;28;20963;-82
2023/01/29 06:50:48;;;;;;;0.57;0.57;;;0.20;99.90;;;;;;5093134;28;20943;-82
2023/01/29 06:53:15;;;;;;;0.30;0.30;;;0.10;99.90;;;;;;5093289;28;20822;-82
2023/01/29 06:55:42;;;;;;;0.30;0.20;;;0.10;99.90;;;;;;5093261;28;20479;-82
2023/01/29 06:58:10;;;;;;;0.70;0.60;;;0.20;99.90;;;;;;5093353;28;20461;-83
2023/01/29 07:00:37;;;;;;;0.70;0.50;;;0.20;99.90;;;;;;5095309;28;20491;-83
2023/01/29 07:03:05;;;;;;;0.30;0.30;;;0.20;99.90;;;;;;5097053;28;20445;-83
2023/01/29 07:05:32;;;;;;;1.80;1.70;;;0.30;99.90;;;;;;5097328;28;20479;-83
2023/01/29 07:07:59;;;;;;;0.30;0.30;;;0.30;99.90;;;;;;5096931;28;20447;-83
2023/01/29 07:10:26;;;;;;;0.30;0.30;;;0.30;99.90;;;;;;5097156;28;20419;-83
2023/01/29 07:12:52;;;;;;;0.50;0.50;;;0.30;99.90;;;;;;5097134;28;20451;-83
2023/01/29 07:15:20;;;;;;;2.60;1.20;;;0.30;99.90;;;;;;5096634;28;20508;-83
2023/01/29 07:17:56;;;;;;;5.40;1.00;;;0.30;99.90;;;;;;5096976;28;20436;-83
2023/01/29 07:20:25;;;;;;;1.27;0.40;;;0.30;99.90;;;;;;5096734;28;20482;-83
2023/01/29 07:22:52;;;;;;;0.43;0.43;;;0.30;99.90;;;;;;5096873;28;20476;-83
2023/01/29 07:25:19;;;;;;;0.70;0.57;;;0.40;99.90;;;;;;5097314;28;20450;-83
2023/01/29 07:27:45;;;;;;;0.40;0.30;;;0.40;99.90;;;;;;5096918;28;20424;-83
2023/01/29 07:30:13;;;;;;;0.30;0.30;;;0.40;99.90;;;;;;5096811;28;20440;-83
2023/01/29 07:32:40;;;;;;;0.30;0.30;;;0.40;99.90;;;;;;5096719;28;20518;-83
2023/01/29 07:35:07;;;;;;;1.40;0.57;;;0.40;99.90;;;;;;5096670;28;20435;-82
2023/01/29 07:37:35;;;;;;;0.30;0.30;;;0.40;99.90;;;;;;5096717;28;20456;-82
2023/01/29 07:40:04;;;;;;;0.50;0.50;;;0.50;99.90;;;;;;5096284;28;20506;-82
2023/01/29 07:42:31;;;;;;;0.60;0.50;;;0.50;99.90;;;;;;5096361;28;20516;-82
2023/01/29 07:44:57;;;;;;;1.43;0.60;;;0.50;99.90;;;;;;5096420;28;20429;-83
2023/01/29 07:47:24;;;;;;;0.30;0.20;;;0.50;99.90;;;;;;5096206;28;20966;-83
2023/01/29 07:49:51;;;;;;;0.50;0.40;;;0.50;99.90;;;;;;5096475;28;20448;-82
2023/01/29 07:52:18;;;;;;;0.80;0.57;;;0.50;99.90;;;;;;5096481;28;20419;-83
2023/01/29 07:54:46;;;;;;;0.77;0.77;;;0.60;99.90;;;;;;5096528;28;20445;-82
2023/01/29 07:57:13;;;;;;;0.30;0.20;;;0.70;99.90;;;;;;5096078;28;20472;-82
2023/01/29 07:59:39;;;;;;;0.30;0.30;;;0.70;99.90;;;;;;5096458;28;20489;-82
2023/01/29 08:02:06;;;;;;;4.03;0.70;;;0.70;99.90;;;;;;5096266;28;20444;-82
2023/01/29 08:04:33;;;;;;;0.30;0.30;;;0.80;99.90;;;;;;5096082;28;20437;-82
2023/01/29 08:07:00;;;;;;;0.30;0.30;;;0.80;99.90;;;;;;5097004;28;20473;-83
2023/01/29 08:09:26;;;;;;;0.40;0.40;;;0.70;99.90;;;;;;5095690;28;20944;-82
2023/01/29 08:11:55;;;;;;;0.30;0.30;;;0.70;99.90;;;;;;5095110;28;20456;-82
2023/01/29 08:14:22;;;;;;;1.80;0.50;;;0.70;99.90;;;;;;5095721;28;20452;-82
2023/01/29 08:16:49;;;;;;;0.30;0.30;;;0.70;99.90;;;;;;5095829;28;20479;-83
2023/01/29 08:19:16;;;;;;;0.30;0.30;;;0.70;99.90;;;;;;5095968;28;20491;-83
2023/01/29 08:21:43;;;;;;;1.10;0.40;;;0.70;99.90;;;;;;5095855;28;20812;-82
2023/01/29 08:24:10;;;;;;;0.87;0.67;;;0.60;99.90;;;;;;5095992;28;20425;-83
2023/01/29 08:26:37;;;;;;;1.77;0.43;;;0.60;99.90;;;;;;5095495;28;20450;-83
2023/01/29 08:29:05;;;;;;;0.70;0.50;;;0.60;99.90;;;;;;5095915;28;20427;-83
2023/01/29 08:31:32;;;;;;;1.27;0.80;;;0.60;99.90;;;;;;5095838;28;20453;-83
2023/01/29 08:33:59;;;;;;;0.30;0.30;;;0.60;99.90;;;;;;5095752;28;20436;-82
2023/01/29 08:36:25;;;;;;;0.30;0.30;;;0.70;99.90;;;;;;5095448;28;20469;-83
2023/01/29 08:38:52;;;;;;;0.73;0.73;;;0.70;99.90;;;;;;5095512;28;20461;-83
2023/01/29 08:41:19;;;;;;;0.80;0.80;;;0.60;99.90;;;;;;5095199;28;20468;-83
2023/01/29 08:43:46;;;;;;;3.87;0.77;;;0.60;99.90;;;;;;5096274;28;20927;-83
2023/01/29 08:46:14;;;;;;;0.30;0.30;;;0.70;99.90;;;;;;5095998;28;20877;-82
2023/01/29 08:48:40;;;;;;;0.30;0.30;;;0.80;99.90;;;;;;5095251;28;20967;-83
2023/01/29 08:51:08;;;;;;;1.57;0.97;;;0.80;99.90;;;;;;5095427;28;20463;-83
2023/01/29 08:53:35;;;;;;;0.30;0.30;;;0.80;99.90;;;;;;5095392;28;20978;-82
2023/01/29 08:56:02;;;;;;;0.90;0.40;;;0.90;99.90;;;;;;5095341;28;20501;-82
2023/01/29 08:58:28;;;;;;;0.30;0.30;;;0.90;99.90;;;;;;5095169;28;20444;-82
2023/01/29 09:00:55;;;;;;;0.30;0.30;;;0.90;99.90;;;;;;5094972;28;20519;-83
2023/01/29 09:03:23;;;;;;;0.30;0.30;;;0.90;99.90;;;;;;5095093;28;20445;-82
2023/01/29 09:05:50;;;;;;;0.80;0.80;;;0.90;99.90;;;;;;5095148;28;20468;-83
2023/01/29 09:08:17;;;;;;;0.57;0.57;;;0.90;99.90;;;;;;5094951;28;20412;-82
2023/01/29 09:10:44;;;;;;;0.40;0.40;;;1.00;99.90;;;;;;5094887;28;20467;-83
2023/01/29 09:13:10;;;;;;;0.40;0.40;;;1.00;99.90;;;;;;5094624;28;20460;-83
2023/01/29 09:15:37;;;;;;;1.27;1.00;;;1.00;99.90;;;;;;5094511;28;20492;-83
2023/01/29 09:18:04;;;;;;;0.77;0.57;;;1.10;99.90;;;;;;5094870;28;20448;-83
2023/01/29 09:20:33;;;;;;;1.33;0.50;;;1.20;99.90;;;;;;5094329;28;20480;-83
2023/01/29 09:23:04;;;;;;;0.30;0.20;;;1.20;99.90;;;;;;5094020;28;20445;-83
2023/01/29 09:25:31;;;;;;;0.97;0.70;;;1.30;99.90;;;;;;5094442;28;20783;-83
2023/01/29 09:27:58;;;;;;;0.50;0.47;;;1.30;99.90;;;;;;5094740;28;20448;-83
2023/01/29 09:30:25;;;;;;;1.13;0.50;;;1.40;99.90;;;;;;5095654;28;20452;-83
2023/01/29 09:32:51;;;;;;;0.83;0.70;;;1.40;99.90;;;;;;5094315;28;20433;-83
2023/01/29 09:35:18;;;;;;;2.17;1.97;;;1.30;99.90;;;;;;5094418;28;20491;-81
2023/01/29 09:37:48;;;;;;;0.30;0.30;;;1.40;99.90;;;;;;5094190;28;20453;-81
2023/01/29 09:40:24;;;;;;;0.30;0.30;;;1.40;99.90;;;;;;5094398;28;20831;-82
2023/01/29 09:42:56;;;;;;;0.53;0.50;;;1.50;99.90;;;;;;5094134;28;20433;-82
2023/01/29 09:45:26;;;;;;;0.40;0.40;;;1.50;99.90;;;;;;5094410;28;20468;-82
2023/01/29 09:47:55;;;;;;;1.00;1.00;;;1.60;99.90;;;;;;5094133;28;20440;-82
2023/01/29 09:50:26;;;;;;;1.13;1.00;;;1.60;99.90;;;;;;5094072;28;20448;-83
2023/01/29 09:52:59;;;;;;;0.77;0.77;;;1.60;99.90;;;;;;5093706;28;20437;-82
2023/01/29 09:55:28;;;;;;;1.00;0.73;;;1.70;99.90;;;;;;5094460;28;20471;-82
2023/01/29 09:57:58;;;;;;;0.30;0.30;;;1.70;99.90;;;;;;5093951;28;20444;-82
2023/01/29 10:00:31;;;;;;;0.70;0.50;;;1.80;99.90;;;;;;5093909;28;20483;-82
2023/01/29 10:03:23;;;;;;;0.40;0.40;;;1.80;99.90;;;;;;5093676;28;20429;-82
2023/01/29 10:06:09;;;;;;;0.30;0.27;;;1.90;99.90;;;;;;5093868;28;20472;-82
2023/01/29 10:09:10;;;;;;;2.80;2.13;;;2.00;99.90;;;;;;5093753;28;20444;-82
2023/01/29 10:11:49;;;;;;;0.60;0.40;;;2.00;99.90;;;;;;5059979;28;20952;-82
2023/01/29 10:14:23;;;;;;;1.47;0.77;;;2.10;99.90;;;;;;5093710;28;20524;-82
2023/01/29 10:17:07;;;;;;;0.30;0.30;;;2.20;99.90;;;;;;5093426;28;20472;-82
2023/01/29 10:20:02;;;;;;;0.47;0.47;;;2.30;99.90;;;;;;5093836;28;20424;-82
2023/01/29 10:22:57;;;;;;;0.37;0.37;;;2.40;99.90;;;;;;5093782;28;21001;-82
2023/01/29 10:25:25;;;;;;;0.93;0.80;;;2.60;99.90;;;;;;5093266;28;20468;-81
2023/01/29 10:27:54;;;;;;;1.73;0.40;;;2.70;99.90;;;;;;5093309;28;20826;-82
2023/01/29 10:30:30;;;;;;;0.47;0.47;;;2.70;99.90;;;;;;5093233;28;20940;-82
2023/01/29 10:33:02;;;;;;;0.30;0.30;;;2.80;99.90;;;;;;5093642;28;20429;-83
2023/01/29 10:35:33;;;;;;;0.50;0.40;;;2.80;99.90;;;;;;5092798;28;20857;-83
2023/01/29 10:38:15;;;;;;;0.60;0.60;;;2.80;99.90;;;;;;5093590;28;20433;-83
2023/01/29 10:40:50;;;;;;;0.50;0.50;;;2.90;99.90;;;;;;5093487;28;20465;-82
2023/01/29 10:43:23;;;;;;;2.83;0.90;;;2.90;99.90;;;;;;5093496;28;20420;-82
2023/01/29 10:45:57;;;;;;;7.20;0.73;;;3.00;99.90;;;;;;5093147;28;20987;-82
2023/01/29 10:48:40;;;;;;;0.60;0.60;;;2.90;99.90;;;;;;5093367;28;20436;-82
2023/01/29 10:51:20;;;;;;;0.60;0.60;;;3.00;99.90;;;;;;5093401;28;20433;-82
2023/01/29 10:53:56;;;;;;;0.97;0.77;;;3.20;99.90;;;;;;5093369;28;20436;-83
2023/01/29 10:56:43;;;;;;;0.50;0.50;;;3.20;99.90;;;;;;5093210;28;20468;-82
2023/01/29 10:59:24;;;;;;;0.67;0.67;;;3.10;99.90;;;;;;5093290;28;20428;-83
2023/01/29 11:01:51;;;;;;;0.70;0.70;;;3.20;99.90;;;;;;5093525;28;20465;-82
2023/01/29 11:04:18;;;;;;;3.03;0.43;;;3.30;99.90;;;;;;5093321;28;20464;-84
2023/01/29 11:06:45;;;;;;;0.60;0.60;;;3.20;99.90;;;;;;5093102;28;21003;-83
2023/01/29 11:09:31;;;;;;;0.40;0.30;;;3.20;99.90;;;;;;5093147;28;20472;-83
2023/01/29 11:12:02;;;;;;;0.90;0.90;;;3.20;99.90;;;;;;5093393;28;20441;-83
2023/01/29 11:14:36;;;;;;;1.43;0.80;;;3.20;99.90;;;;;;5093061;28;20441;-84
2023/01/29 11:17:03;;;;;;;0.80;0.43;;;3.20;99.90;;;;;;5093293;28;20472;-84
2023/01/29 11:19:37;;;;;;;1.20;0.90;;;3.40;99.90;;;;;;5093180;28;20468;-84
2023/01/29 11:22:08;;;;;;;2.57;0.50;;;3.50;99.90;;;;;;5093272;28;20467;-84
2023/01/29 11:24:34;;;;;;;0.43;0.43;;;3.50;99.90;;;;;;5093277;28;20510;-83
2023/01/29 11:27:15;;;;;;;1.00;0.90;;;3.40;99.90;;;;;;5093161;28;20472;-84
2023/01/29 11:29:43;;;;;;;0.40;0.40;;;3.40;99.90;;;;;;5093030;28;20424;-83
2023/01/29 11:32:14;;;;;;;0.30;0.30;;;3.40;99.90;;;;;;5093016;28;20440;-84
2023/01/29 11:34:58;;;;;;;0.60;0.50;;;3.50;99.90;;;;;;5093063;28;20437;-84
2023/01/29 11:37:33;;;;;;;0.43;0.43;;;3.40;99.90;;;;;;5093459;28;20452;-84
2023/01/29 11:39:59;;;;;;;0.60;0.50;;;3.40;99.90;;;;;;5092859;28;20436;-84
2023/01/29 11:42:32;;;;;;;0.40;0.30;;;3.40;99.90;;;;;;5092696;28;20840;-84
2023/01/29 11:44:59;;;;;;;1.03;0.40;;;3.20;99.90;;;;;;5093063;28;20486;-84
2023/01/29 11:47:28;;;;;;;0.30;0.30;;;3.30;99.90;;;;;;5094583;28;20452;-83
2023/01/29 11:49:57;;;;;;;3.70;1.60;;;3.30;99.90;;;;;;5096449;28;20452;-83
2023/01/29 11:52:27;;;;;;;0.70;0.70;;;3.20;99.90;;;;;;5096491;28;20457;-83
2023/01/29 11:54:57;;;;;;;0.40;0.40;;;3.20;99.90;;;;;;5096534;28;20437;-83
2023/01/29 11:57:30;;;;;;;0.30;0.30;;;3.20;99.90;;;;;;5096023;28;20962;-83
2023/01/29 12:00:00;;;;;;;0.40;0.40;;;3.30;99.90;;;;;;5096376;28;20441;-83
2023/01/29 12:02:33;;;;;;;1.13;0.60;;;3.30;99.90;;;;;;5096141;28;20485;-83
2023/01/29 12:05:04;;;;;;;0.30;0.30;;;3.40;99.90;;;;;;5096037;28;20529;-83
2023/01/29 12:07:31;;;;;;;0.30;0.30;;;3.40;99.90;;;;;;5096152;28;20450;-83
2023/01/29 12:09:59;;;;;;;0.30;0.30;;;3.40;99.90;;;;;;5096032;28;20448;-83
2023/01/29 12:12:41;;;;;;;0.40;0.30;;;3.50;99.90;;;;;;5095996;28;20486;-83
2023/01/29 12:15:18;;;;;;;0.40;0.40;;;3.40;99.90;;;;;;5096006;28;20567;-83
2023/01/29 12:17:53;;;;;;;1.00;0.73;;;3.40;99.90;;;;;;5095741;28;20429;-83
2023/01/29 12:20:26;;;;;;;3.90;0.73;;;3.40;99.90;;;;;;5096608;28;20435;-83
2023/01/29 12:22:59;;;;;;;0.30;0.30;;;3.50;99.90;;;;;;5095646;28;20437;-83
2023/01/29 12:25:38;;;;;;;0.53;0.53;;;3.40;99.90;;;;;;5095757;28;20475;-83
2023/01/29 12:28:15;;;;;;;0.60;0.50;;;3.40;99.90;;;;;;5095751;28;20440;-83
2023/01/29 12:30:48;;;;;;;0.70;0.40;;;3.40;99.90;;;;;;5095551;28;20424;-83
2023/01/29 12:33:26;;;;;;;0.60;0.60;;;3.30;99.90;;;;;;5095603;28;20437;-83
2023/01/29 12:35:58;;;;;;;0.30;0.30;;;3.10;99.90;;;;;;5095632;28;20475;-83
2023/01/29 12:38:25;;;;;;;0.80;0.80;;;3.00;99.90;;;;;;5095524;28;20440;-83
2023/01/29 12:40:56;;;;;;;0.40;0.40;;;3.00;99.90;;;;;;5095246;28;20978;-83
2023/01/29 12:43:30;;;;;;;0.53;0.53;;;2.90;99.90;;;;;;5095114;28;20895;-83
2023/01/29 12:45:59;;;;;;;0.40;0.30;;;2.80;99.90;;;;;;5095237;28;20465;-83
2023/01/29 12:48:30;;;;;;;0.57;0.57;;;2.80;99.90;;;;;;5095469;28;20444;-83
2023/01/29 12:51:06;;;;;;;0.60;0.60;;;2.70;99.90;;;;;;5095041;28;20915;-83
2023/01/29 12:53:37;;;;;;;2.20;0.70;;;2.70;99.90;;;;;;5094898;28;20911;-83
2023/01/29 12:56:10;;;;;;;0.30;0.20;;;2.60;99.90;;;;;;5094812;28;20473;-83
2023/01/29 12:58:43;;;;;;;0.90;0.90;;;2.60;99.90;;;;;;5094864;28;20444;-83
2023/01/29 13:01:15;;;;;;;0.67;0.67;;;2.60;99.90;;;;;;5095001;28;20487;-83
2023/01/29 13:03:51;;;;;;;0.57;0.57;;;2.50;99.90;;;;;;5095036;28;20460;-83
2023/01/29 13:06:22;;;;;;;1.73;0.70;;;2.40;99.90;;;;;;5094843;28;20472;-83
2023/01/29 13:08:53;;;;;;;0.83;0.83;;;2.40;99.90;;;;;;5095768;28;20435;-83
2023/01/29 13:11:25;;;;;;;0.70;0.70;;;2.40;99.90;;;;;;5095154;28;20452;-83
2023/01/29 13:13:56;;;;;;;1.40;0.60;;;2.40;99.90;;;;;;5094836;28;20429;-84
2023/01/29 13:16:26;;;;;;;0.80;0.80;;;2.50;99.90;;;;;;5094275;28;20484;-83
2023/01/29 13:18:56;;;;;;;0.57;0.40;;;2.40;99.90;;;;;;5094756;28;20437;-83
2023/01/29 13:21:26;;;;;;;0.87;0.33;;;2.50;99.90;;;;;;5094648;28;20495;-83
2023/01/29 13:23:57;;;;;;;2.33;0.77;;;2.50;99.90;;;;;;5094868;28;20480;-83
2023/01/29 13:26:25;;;;;;;0.83;0.50;;;2.50;99.90;;;;;;5094194;28;20468;-83
2023/01/29 13:28:53;;;;;;;0.80;0.60;;;2.50;99.90;;;;;;5094508;28;20518;-83
2023/01/29 13:31:30;;;;;;;0.70;0.70;;;2.40;99.90;;;;;;5094082;28;20445;-83
2023/01/29 13:34:07;;;;;;;1.27;0.83;;;2.40;99.90;;;;;;5094099;28;20444;-83
2023/01/29 13:36:36;;;;;;;0.93;0.87;;;2.50;99.90;;;;;;5094396;28;20483;-83
2023/01/29 13:39:07;;;;;;;2.00;0.77;;;2.50;99.90;;;;;;5094587;28;20448;-84
2023/01/29 13:41:36;;;;;;;0.30;0.20;;;2.50;99.90;;;;;;5093929;28;20460;-83
2023/01/29 13:44:07;;;;;;;0.60;0.60;;;2.50;99.90;;;;;;5094601;28;20458;-83
2023/01/29 13:46:39;;;;;;;0.67;0.67;;;2.60;99.90;;;;;;5094099;28;20492;-83